Peshawar Weather



Peshawar's Current Weather

Temprature 17o haze

haze

Rain: 0 %

Min Temprature17o
Max Temprature17o
Humidity55
Wind Speed2.1 m/h
Sun Rise06:29:37
Sun Set17:25:05
Current Time: 28-Oct-2020 04:18:27
Lat/Lon: 34.01, 71.58




Peshawar's Geo Location



Peshawar's Weather Forecast

Time Overall Temp Min Temp Max Temp Humidity Wind Speed Rain
28-Oct-2020 (Wed)
05:00:00 clear sky 17.560 17.560 18.150 41 0.5 m/h 0 %
08:00:00 clear sky 20.190 20.190 21.070 29 0.38 m/h 0 %
11:00:00 clear sky 25.160 25.160 25.720 19 1.35 m/h 0 %
14:00:00 clear sky 28.750 28.750 28.840 14 0.88 m/h 0 %
17:00:00 clear sky 27.030 27.030 27.030 16 1.25 m/h 0 %
20:00:00 clear sky 23.460 23.460 23.460 20 1.11 m/h 0 %
23:00:00 clear sky 21.050 21.050 21.050 23 1.48 m/h 0 %
29-Oct-2020 (Thu)
02:00:00 clear sky 19.610 19.610 19.610 26 0.77 m/h 0 %
05:00:00 clear sky 18.780 18.780 18.780 27 0.29 m/h 0 %
08:00:00 clear sky 21.430 21.430 21.430 23 0.94 m/h 0 %
11:00:00 clear sky 26.000 26.000 26.000 16 0.82 m/h 0 %
14:00:00 clear sky 29.330 29.330 29.330 12 2.05 m/h 0 %
17:00:00 clear sky 26.690 26.690 26.690 14 1.81 m/h 0 %
20:00:00 clear sky 23.160 23.160 23.160 17 0.6 m/h 0 %
23:00:00 clear sky 20.650 20.650 20.650 21 1.28 m/h 0 %
30-Oct-2020 (Fri)
02:00:00 clear sky 18.640 18.640 18.640 26 0.58 m/h 0 %
05:00:00 clear sky 17.750 17.750 17.750 28 0.66 m/h 0 %
08:00:00 clear sky 20.720 20.720 20.720 24 0.7 m/h 0 %
11:00:00 clear sky 25.680 25.680 25.680 16 0.88 m/h 0 %
14:00:00 clear sky 29.230 29.230 29.230 13 0.69 m/h 0 %
17:00:00 clear sky 26.840 26.840 26.840 15 1.54 m/h 0 %
20:00:00 clear sky 23.940 23.940 23.940 17 2.63 m/h 0 %
23:00:00 clear sky 21.450 21.450 21.450 18 1.5 m/h 0 %
31-Oct-2020 (Sat)
02:00:00 clear sky 18.810 18.810 18.810 22 0.66 m/h 0 %
05:00:00 clear sky 17.370 17.370 17.370 24 0.72 m/h 0 %
08:00:00 clear sky 20.030 20.030 20.030 22 0.93 m/h 0 %
11:00:00 clear sky 25.300 25.300 25.300 15 0.3 m/h 0 %
14:00:00 clear sky 29.490 29.490 29.490 11 0.97 m/h 0 %
17:00:00 clear sky 27.030 27.030 27.030 13 1.82 m/h 0 %
20:00:00 clear sky 23.840 23.840 23.840 15 2.81 m/h 0 %
23:00:00 clear sky 21.640 21.640 21.640 16 1.47 m/h 0 %
01-Nov-2020 (Sun)
02:00:00 clear sky 18.670 18.670 18.670 21 1.04 m/h 0 %
05:00:00 clear sky 16.860 16.860 16.860 25 0.97 m/h 0 %
08:00:00 clear sky 19.610 19.610 19.610 22 0.53 m/h 0 %
11:00:00 clear sky 25.410 25.410 25.410 14 0.22 m/h 0 %
14:00:00 clear sky 29.590 29.590 29.590 10 0.54 m/h 0 %
17:00:00 clear sky 26.850 26.850 26.850 12 1.21 m/h 0 %
20:00:00 clear sky 24.210 24.210 24.210 13 2.71 m/h 0 %
23:00:00 clear sky 21.470 21.470 21.470 16 0.4 m/h 0 %
02-Nov-2020 (Mon)
02:00:00 clear sky 17.790 17.790 17.790 24 1.02 m/h 0 %

Famous Cities (60)